Time;durP1;ratioP1;P1;durP2;ratioP2;P2;SDS_P1;SDS_P2;PMS_P1;PMS_P2;Temp;Humidity;BMP_temperature;BMP_pressure;BME280_temperature;BME280_humidity;BME280_pressure;Samples;Min_cycle;Max_cycle;Signal;HPM_P1;HPM_P2
2023/10/16 00:03:56;;;;;;;4.20;1.33;;;;;;;5.36;100.00;100527.53;12188535;19;20444;-81
2023/10/16 00:08:05;;;;;;;3.42;1.60;;;;;;;5.36;100.00;100531.09;12159815;19;20374;-82
2023/10/16 00:12:07;;;;;;;4.75;1.25;;;;;;;5.34;100.00;100533.16;12168408;19;20010;-81
2023/10/16 00:16:15;;;;;;;3.55;1.35;;;;;;;5.27;100.00;100534.19;12193723;19;20015;-80
2023/10/16 00:20:19;;;;;;;2.20;1.20;;;;;;;5.25;100.00;100535.19;12169910;19;19995;-78
2023/10/16 00:24:21;;;;;;;1.95;1.33;;;;;;;5.20;100.00;100531.34;12191389;19;20071;-79
2023/10/16 00:28:22;;;;;;;2.25;1.30;;;;;;;5.22;100.00;100519.19;12193141;19;20007;-79
2023/10/16 00:32:24;;;;;;;4.45;1.33;;;;;;;5.21;100.00;100522.16;12204222;19;20026;-79
2023/10/16 00:36:27;;;;;;;7.63;1.90;;;;;;;5.17;100.00;100524.41;12201754;19;20409;-80
2023/10/16 00:40:32;;;;;;;4.40;1.27;;;;;;;5.15;100.00;100523.78;12180943;19;20030;-79
2023/10/16 00:44:33;;;;;;;5.65;1.50;;;;;;;5.15;100.00;100518.31;12221986;19;20468;-79
2023/10/16 00:48:37;;;;;;;4.32;1.15;;;;;;;5.16;100.00;100521.88;12213428;19;20006;-78
2023/10/16 00:52:42;;;;;;;3.13;1.42;;;;;;;5.14;100.00;100510.28;12178928;19;20010;-80
2023/10/16 00:56:45;;;;;;;5.10;1.40;;;;;;;5.12;100.00;100518.69;12200982;19;20018;-78
2023/10/16 01:00:48;;;;;;;;;;;;;;;5.13;100.00;100519.53;12192895;19;20414;-81
2023/10/16 01:04:52;;;;;;;2.25;1.13;;;;;;;5.12;100.00;100515.13;12191932;19;20048;-80
2023/10/16 01:08:55;;;;;;;3.65;1.40;;;;;;;5.07;100.00;100517.59;12208855;19;20571;-80
2023/10/16 01:12:59;;;;;;;4.70;1.35;;;;;;;5.02;100.00;100508.09;12201809;19;20020;-80
2023/10/16 01:17:03;;;;;;;5.47;1.50;;;;;;;4.83;100.00;100510.66;12184481;19;20018;-80
2023/10/16 01:21:05;;;;;;;3.47;1.30;;;;;;;4.64;100.00;100520.31;12201093;19;20007;-79
2023/10/16 01:25:08;;;;;;;2.85;1.33;;;;;;;4.49;100.00;100512.19;12198470;19;20006;-79
2023/10/16 01:29:10;;;;;;;3.83;1.17;;;;;;;4.42;100.00;100506.66;12179071;19;20014;-80
2023/10/16 01:33:16;;;;;;;2.40;1.30;;;;;;;4.35;100.00;100513.94;12197211;19;20111;-79
2023/10/16 01:37:19;;;;;;;2.53;1.25;;;;;;;4.36;100.00;100501.97;12192305;19;20015;-80
2023/10/16 01:41:21;;;;;;;3.70;1.10;;;;;;;4.40;100.00;100500.53;12166926;19;20484;-79
2023/10/16 01:45:25;;;;;;;2.70;0.90;;;;;;;4.40;100.00;100502.41;12188164;19;20030;-79
2023/10/16 01:49:27;;;;;;;2.45;1.30;;;;;;;4.37;100.00;100500.91;12176304;19;20731;-78
2023/10/16 01:53:32;;;;;;;4.43;1.83;;;;;;;4.36;100.00;100501.97;12200661;19;20074;-79
2023/10/16 01:57:34;;;;;;;5.88;1.45;;;;;;;4.38;100.00;100490.88;12207605;19;20063;-79
2023/10/16 02:01:36;;;;;;;4.72;1.67;;;;;;;4.39;100.00;100487.94;12174400;19;20469;-78
2023/10/16 02:05:41;;;;;;;4.07;1.58;;;;;;;4.41;100.00;100494.06;12188773;19;20027;-80
2023/10/16 02:09:45;;;;;;;2.83;1.25;;;;;;;4.41;100.00;100483.16;12187594;19;20010;-79
2023/10/16 02:13:47;;;;;;;3.60;1.48;;;;;;;4.44;100.00;100474.56;12172009;19;20050;-79
2023/10/16 02:17:49;;;;;;;3.85;1.80;;;;;;;4.46;100.00;100469.78;12190866;19;20015;-79
2023/10/16 02:21:53;;;;;;;3.90;1.70;;;;;;;4.40;100.00;100465.06;12190988;19;20018;-79
2023/10/16 02:25:59;;;;;;;2.53;1.50;;;;;;;4.41;100.00;100466.78;12160502;19;20006;-79
2023/10/16 02:34:43;;;;;;;5.28;1.67;;;;;;;4.32;100.00;100462.47;12159291;19;20000;-80
2023/10/16 02:38:49;;;;;;;2.67;1.40;;;;;;;4.30;100.00;100462.66;12188743;19;20042;-80
2023/10/16 02:43:00;;;;;;;3.35;1.33;;;;;;;4.29;100.00;100462.88;12193533;19;20303;-80
2023/10/16 02:47:05;;;;;;;5.03;1.43;;;;;;;4.31;100.00;100460.75;12174531;19;20011;-80
2023/10/16 02:51:09;;;;;;;2.10;1.17;;;;;;;4.30;100.00;100459.09;12196598;19;20011;-80
2023/10/16 02:55:11;;;;;;;3.72;1.40;;;;;;;4.30;100.00;100456.34;12199799;19;20014;-79
2023/10/16 02:59:13;;;;;;;3.35;1.35;;;;;;;4.31;100.00;100450.72;12194921;19;20011;-79
2023/10/16 03:03:17;;;;;;;5.22;1.45;;;;;;;4.31;100.00;100461.63;12217301;19;20018;-81
2023/10/16 03:07:20;;;;;;;4.47;1.70;;;;;;;4.28;100.00;100463.88;12209789;19;20007;-80
2023/10/16 03:11:22;;;;;;;3.40;1.43;;;;;;;4.26;100.00;100458.63;12189271;19;20021;-80
2023/10/16 03:15:28;;;;;;;4.15;1.70;;;;;;;4.28;100.00;100456.56;12209285;19;20687;-79
2023/10/16 03:19:30;;;;;;;4.10;1.50;;;;;;;4.32;100.00;100460.59;12190458;19;20006;-79
2023/10/16 03:23:34;;;;;;;1.77;1.25;;;;;;;4.33;100.00;100459.53;12208001;19;20374;-80
2023/10/16 03:27:42;;;;;;;7.55;2.08;;;;;;;4.40;100.00;100443.22;12203334;19;20002;-78
2023/10/16 03:31:44;;;;;;;4.00;1.75;;;;;;;4.41;100.00;100461.31;12188341;19;20016;-79
2023/10/16 03:35:47;;;;;;;5.63;2.40;;;;;;;4.43;100.00;100452.91;12211255;19;20082;-81
2023/10/16 03:39:56;;;;;;;5.13;2.03;;;;;;;4.46;100.00;100458.84;12211173;19;20019;-81
2023/10/16 03:44:06;;;;;;;6.72;2.55;;;;;;;4.43;100.00;100456.50;12189745;19;20006;-80
2023/10/16 03:48:09;;;;;;;5.75;1.88;;;;;;;4.34;100.00;100457.66;12208891;19;20469;-80
2023/10/16 03:52:11;;;;;;;6.65;1.98;;;;;;;4.21;100.00;100461.09;12209213;19;20010;-78
2023/10/16 03:56:13;;;;;;;5.22;2.10;;;;;;;4.07;100.00;100454.63;12185970;19;20070;-80
2023/10/16 04:00:16;;;;;;;9.38;1.80;;;;;;;3.98;100.00;100450.31;12209845;19;20370;-80
2023/10/16 04:04:20;;;;;;;6.45;2.30;;;;;;;3.90;100.00;100447.72;12206858;19;20051;-77
2023/10/16 04:08:22;;;;;;;6.03;2.20;;;;;;;3.83;100.00;100450.34;12182455;19;20006;-78
2023/10/16 04:12:25;;;;;;;;;;;;;;;3.80;100.00;100452.59;12215346;19;20077;-80
2023/10/16 04:20:44;;;;;;;4.45;1.90;;;;;;;3.71;100.00;100449.13;12229249;19;20010;-79
2023/10/16 04:24:46;;;;;;;5.72;2.30;;;;;;;3.73;100.00;100443.50;12210868;19;20454;-82
2023/10/16 04:33:23;;;;;;;7.15;2.70;;;;;;;3.77;100.00;100442.94;12206751;19;20034;-79
2023/10/16 04:37:40;;;;;;;7.50;2.92;;;;;;;3.75;100.00;100441.41;12185483;19;20003;-81
2023/10/16 04:55:42;;;;;;;8.63;3.30;;;;;;;3.70;100.00;100438.44;12205737;19;20019;-78
2023/10/16 04:59:36;;;;;;;13.15;4.80;;;;;;;3.70;100.00;100436.56;12185007;19;20643;-78
2023/10/16 05:03:44;;;;;;;7.07;3.05;;;;;;;3.75;100.00;100427.78;12202704;19;20008;-81
2023/10/16 05:07:53;;;;;;;7.32;4.10;;;;;;;3.80;100.00;100430.81;12181657;19;20480;-78
2023/10/16 05:16:30;;;;;;;8.80;3.80;;;;;;;3.90;100.00;100423.19;12205432;19;20014;-80
2023/10/16 06:17:23;;;;;;;39.47;16.90;;;;;;;4.08;100.00;100420.88;12189844;19;20017;-80
2023/10/16 06:21:25;;;;;;;24.60;11.75;;;;;;;4.14;100.00;100418.41;12224004;19;20010;-80
2023/10/16 06:25:30;;;;;;;21.55;10.43;;;;;;;4.20;100.00;100426.66;12199457;19;20022;-80
2023/10/16 06:29:34;;;;;;;24.63;10.20;;;;;;;4.23;100.00;100426.28;12236705;19;21644;-78
2023/10/16 06:33:40;;;;;;;19.13;9.57;;;;;;;4.27;100.00;100426.72;12263966;19;20010;-78
2023/10/16 06:37:51;;;;;;;18.30;8.60;;;;;;;4.31;100.00;100434.34;12240874;19;20023;-79
2023/10/16 06:41:54;;;;;;;14.23;6.22;;;;;;;4.41;100.00;100436.75;12245395;19;20003;-81
2023/10/16 06:46:09;;;;;;;;;;;;;;;4.48;100.00;100434.09;12233513;19;20446;-80
2023/10/16 06:54:25;;;;;;;17.73;7.82;;;;;;;4.59;100.00;100439.03;12226838;19;20033;-81
2023/10/16 06:58:28;;;;;;;20.35;7.78;;;;;;;4.73;100.00;100443.56;12213384;19;20013;-81
2023/10/16 07:02:29;;;;;;;17.90;10.60;;;;;;;4.87;100.00;100444.50;12230374;19;20595;-80
2023/10/16 07:06:35;;;;;;;18.13;9.43;;;;;;;4.99;100.00;100442.09;12224070;19;20002;-80
2023/10/16 07:10:41;;;;;;;17.42;9.82;;;;;;;5.09;100.00;100441.78;12205612;19;20057;-79
2023/10/16 07:14:55;;;;;;;19.30;10.02;;;;;;;5.25;100.00;100449.66;12225570;19;20018;-81
2023/10/16 07:18:57;;;;;;;17.73;7.38;;;;;;;5.44;100.00;100451.69;12226813;19;20037;-80
2023/10/16 07:23:00;;;;;;;15.83;8.40;;;;;;;5.66;100.00;100444.22;12170322;19;20051;-78
2023/10/16 07:27:12;;;;;;;15.23;7.75;;;;;;;5.87;100.00;100448.75;12222778;19;20011;-79
2023/10/16 07:31:16;;;;;;;15.38;7.00;;;;;;;6.09;100.00;100451.38;12216343;19;20095;-80
2023/10/16 07:35:18;;;;;;;15.23;7.80;;;;;;;6.35;100.00;100448.72;12188918;19;20054;-79
2023/10/16 07:39:20;;;;;;;15.27;7.93;;;;;;;6.64;100.00;100443.13;12215088;19;20018;-79
2023/10/16 07:43:27;;;;;;;17.63;7.53;;;;;;;6.87;100.00;100445.44;12217419;19;20638;-79
2023/10/16 07:47:30;;;;;;;19.10;6.72;;;;;;;7.12;100.00;100442.91;12192134;19;20010;-80
2023/10/16 07:51:33;;;;;;;10.93;5.32;;;;;;;7.26;100.00;100450.91;12219491;19;20041;-80
2023/10/16 07:55:40;;;;;;;9.10;6.13;;;;;;;7.42;100.00;100446.03;12199163;19;20085;-78
2023/10/16 07:59:43;;;;;;;15.43;5.82;;;;;;;7.56;100.00;100450.44;12221010;19;20014;-80
2023/10/16 08:03:46;;;;;;;15.15;5.03;;;;;;;7.75;100.00;100452.28;12213347;19;20033;-80
2023/10/16 08:07:49;;;;;;;12.38;5.30;;;;;;;7.96;100.00;100455.81;12191422;19;20059;-80
2023/10/16 08:12:12;;;;;;;14.20;5.07;;;;;;;8.19;100.00;100456.13;12212385;19;20032;-79
2023/10/16 08:16:21;;;;;;;12.63;5.00;;;;;;;8.51;100.00;100453.47;12211281;19;20018;-82
2023/10/16 08:20:49;;;;;;;9.57;4.75;;;;;;;8.64;100.00;100456.09;12193638;19;20248;-80
2023/10/16 08:24:58;;;;;;;13.55;6.10;;;;;;;8.80;100.00;100451.97;12211968;19;20022;-80
2023/10/16 08:33:28;;;;;;;10.85;5.00;;;;;;;9.33;100.00;100445.19;12208775;19;20034;-79
2023/10/16 08:37:31;;;;;;;13.00;5.25;;;;;;;9.59;100.00;100446.84;12186058;19;20014;-78
2023/10/16 08:45:55;;;;;;;10.30;4.90;;;;;;;9.91;100.00;100455.81;12207860;19;20002;-80
2023/10/16 08:49:58;;;;;;;10.52;5.03;;;;;;;10.13;100.00;100461.66;12186972;19;20010;-79
2023/10/16 08:54:05;;;;;;;8.32;3.72;;;;;;;10.49;100.00;100455.28;12210197;19;20033;-80
2023/10/16 08:58:07;;;;;;;7.43;3.88;;;;;;;10.76;100.00;100454.06;12211655;19;20007;-80
2023/10/16 09:02:13;;;;;;;10.15;3.63;;;;;;;10.82;100.00;100461.38;12189141;19;20007;-79
2023/10/16 09:06:22;;;;;;;10.48;3.53;;;;;;;10.87;98.81;100454.09;12206441;19;20003;-78
2023/10/16 09:10:29;;;;;;;11.63;4.25;;;;;;;10.85;96.47;100447.13;12188453;19;20014;-78
2023/10/16 09:14:32;;;;;;;6.85;3.65;;;;;;;10.90;97.04;100445.34;12205796;19;20010;-79
2023/10/16 09:18:34;;;;;;;7.00;3.20;;;;;;;11.12;98.12;100444.78;12213719;19;20026;-78
2023/10/16 09:22:39;;;;;;;8.30;3.58;;;;;;;11.27;95.43;100441.53;12207245;19;20026;-78
2023/10/16 09:26:45;;;;;;;8.15;3.95;;;;;;;11.29;91.41;100443.00;12216364;19;21226;-79
2023/10/16 09:30:47;;;;;;;9.07;4.13;;;;;;;11.43;92.11;100442.78;12215224;19;20022;-80
2023/10/16 09:35:05;;;;;;;8.68;3.60;;;;;;;11.35;91.65;100444.78;12184737;19;19999;-79
2023/10/16 09:39:17;;;;;;;10.25;2.90;;;;;;;11.45;90.73;100435.06;12208431;19;20018;-79
2023/10/16 09:43:27;;;;;;;4.47;2.70;;;;;;;11.59;88.34;100426.31;12208481;19;20006;-80
2023/10/16 09:47:35;;;;;;;5.85;2.70;;;;;;;11.47;85.66;100422.72;12183797;19;20014;-79
2023/10/16 09:51:39;;;;;;;8.40;2.40;;;;;;;11.36;84.22;100426.31;12205095;19;20097;-79
2023/10/16 09:55:58;;;;;;;5.72;2.28;;;;;;;11.36;82.67;100427.19;12189458;19;20014;-80
2023/10/16 10:00:28;;;;;;;5.65;2.08;;;;;;;11.33;79.80;100422.16;12211298;19;20002;-79
2023/10/16 10:04:27;;;;;;;8.63;1.92;;;;;;;11.59;78.82;100417.19;12200696;19;20015;-81
2023/10/16 10:13:02;;;;;;;5.07;1.52;;;;;;;11.69;75.49;100416.56;12217038;19;20010;-79
2023/10/16 10:17:09;;;;;;;7.90;1.70;;;;;;;11.78;75.91;100423.41;12192704;19;20422;-78
2023/10/16 10:21:28;;;;;;;5.68;2.35;;;;;;;11.88;74.18;100425.59;12206881;19;20011;-79
2023/10/16 10:25:37;;;;;;;4.88;1.38;;;;;;;12.01;75.50;100428.06;12180117;19;20107;-80
2023/10/16 10:29:43;;;;;;;4.53;1.35;;;;;;;12.10;73.11;100415.53;12201146;19;20003;-81
2023/10/16 10:33:58;;;;;;;4.68;1.33;;;;;;;12.28;74.59;100409.84;12208159;19;20026;-79
2023/10/16 10:38:20;;;;;;;3.28;1.23;;;;;;;12.50;70.46;100417.44;12178165;19;20007;-80
2023/10/16 10:42:37;;;;;;;4.83;1.50;;;;;;;12.67;70.50;100411.94;12201881;19;20336;-80
2023/10/16 10:46:42;;;;;;;3.53;1.27;;;;;;;12.88;69.37;100396.53;12183066;19;20030;-79
2023/10/16 10:50:45;;;;;;;3.85;1.40;;;;;;;13.03;66.48;100391.28;12205751;19;20011;-80
2023/10/16 10:54:57;;;;;;;5.63;1.27;;;;;;;13.12;66.17;100383.38;12210364;19;20015;-80
2023/10/16 10:59:08;;;;;;;6.97;1.40;;;;;;;13.28;63.39;100373.41;12190527;19;20038;-80
2023/10/16 11:03:22;;;;;;;7.78;1.40;;;;;;;13.35;63.53;100355.50;12214255;19;20050;-80
2023/10/16 11:07:39;;;;;;;4.97;1.10;;;;;;;13.58;60.57;100354.47;12202878;19;20007;-80
2023/10/16 11:11:44;;;;;;;2.50;1.00;;;;;;;13.73;59.48;100352.97;12224620;19;20003;-80
2023/10/16 11:15:52;;;;;;;4.72;1.05;;;;;;;13.67;58.83;100352.06;12216372;19;20577;-81
2023/10/16 11:19:56;;;;;;;4.10;1.70;;;;;;;13.60;59.49;100351.44;12199681;19;20010;-80
2023/10/16 11:24:00;;;;;;;3.83;1.15;;;;;;;13.70;59.91;100336.88;12220277;19;20007;-80
2023/10/16 11:28:07;;;;;;;4.15;0.88;;;;;;;13.77;58.58;100330.06;12215410;19;20031;-81
2023/10/16 11:32:14;;;;;;;5.25;0.80;;;;;;;13.90;56.88;100323.28;12198562;19;20106;-80
2023/10/16 11:36:23;;;;;;;4.57;1.20;;;;;;;14.22;56.80;100325.28;12213754;19;20002;-81
2023/10/16 11:40:42;;;;;;;5.93;1.52;;;;;;;14.78;55.40;100314.72;12196056;19;20018;-80
2023/10/16 11:44:44;;;;;;;2.50;0.82;;;;;;;15.60;51.63;100306.91;12215223;19;20034;-80
2023/10/16 11:48:49;;;;;;;4.18;1.17;;;;;;;16.22;50.30;100291.28;12218322;19;20011;-80
2023/10/16 11:52:54;;;;;;;4.47;0.80;;;;;;;16.73;48.45;100291.31;12202730;19;20033;-81
2023/10/16 11:56:59;;;;;;;2.03;1.05;;;;;;;17.05;46.37;100285.47;12217730;19;20395;-82
2023/10/16 12:01:09;;;;;;;7.88;1.35;;;;;;;17.51;44.49;100274.19;12218199;19;20022;-82
2023/10/16 12:05:31;;;;;;;3.22;1.00;;;;;;;17.81;44.49;100267.66;12201278;19;20017;-81
2023/10/16 12:09:52;;;;;;;;;;;;;;;17.50;44.97;100266.94;12215050;19;20679;-81
2023/10/16 12:13:54;;;;;;;1.52;0.90;;;;;;;17.71;43.76;100259.34;12193976;19;19915;-81
2023/10/16 12:18:00;;;;;;;3.58;1.23;;;;;;;18.19;44.72;100263.25;12214728;19;20010;-81
2023/10/16 12:22:03;;;;;;;4.13;1.17;;;;;;;18.48;42.53;100253.28;12203683;19;20027;-81
2023/10/16 12:26:05;;;;;;;3.00;1.02;;;;;;;18.60;42.70;100256.53;12191681;19;20065;-81
2023/10/16 12:30:13;;;;;;;;;;;;;;;18.62;43.35;100241.16;12218175;19;20402;-82
2023/10/16 12:34:16;;;;;;;7.55;1.70;;;;;;;19.05;41.09;100234.91;12220660;19;19919;-81
2023/10/16 12:38:19;;;;;;;4.20;1.23;;;;;;;19.06;39.95;100234.56;12187859;19;20461;-81
2023/10/16 12:42:21;;;;;;;4.20;1.67;;;;;;;19.39;40.62;100231.13;12214844;19;20002;-81
2023/10/16 12:46:27;;;;;;;7.18;1.20;;;;;;;19.77;39.60;100223.69;12196479;19;20275;-81
2023/10/16 12:50:29;;;;;;;3.92;0.82;;;;;;;19.72;39.17;100220.94;12215803;19;20010;-81
2023/10/16 12:54:31;;;;;;;2.63;0.80;;;;;;;19.52;40.07;100227.63;12211011;19;20024;-81
2023/10/16 12:58:33;;;;;;;2.80;1.10;;;;;;;18.81;38.61;100209.75;12194139;19;20653;-81
2023/10/16 13:02:36;;;;;;;2.67;0.70;;;;;;;17.91;40.17;100217.44;12216500;19;20030;-81
2023/10/16 13:06:37;;;;;;;2.43;0.80;;;;;;;16.99;40.74;100211.44;12214877;19;20007;-80
2023/10/16 13:10:39;;;;;;;2.30;0.93;;;;;;;16.49;41.63;100213.16;12194829;19;20024;-82
2023/10/16 13:14:41;;;;;;;2.83;0.60;;;;;;;16.20;41.76;100205.38;12211116;19;20011;-81
2023/10/16 13:18:45;;;;;;;5.70;0.80;;;;;;;16.09;41.85;100212.88;12210898;19;20014;-81
2023/10/16 13:22:49;;;;;;;2.93;1.00;;;;;;;15.88;42.30;100195.34;12194947;19;20018;-81
2023/10/16 13:26:52;;;;;;;7.00;2.25;;;;;;;15.64;43.19;100202.47;12209595;19;20047;-82
2023/10/16 13:30:54;;;;;;;;;;;;;;;15.27;43.54;100203.47;12217518;19;20014;-81
2023/10/16 13:35:00;;;;;;;2.05;0.82;;;;;;;14.97;43.48;100201.38;12202083;19;19911;-80
2023/10/16 13:39:08;;;;;;;3.08;0.70;;;;;;;14.70;43.78;100193.19;12216192;19;20026;-80
2023/10/16 13:43:11;;;;;;;3.67;0.75;;;;;;;14.48;43.75;100196.03;12226259;19;20002;-80
2023/10/16 13:47:14;;;;;;;1.48;0.70;;;;;;;14.32;44.37;100192.34;12194061;19;20006;-79
2023/10/16 13:51:16;;;;;;;5.70;0.97;;;;;;;14.30;44.84;100191.75;12221289;19;20014;-80
2023/10/16 13:55:21;;;;;;;5.45;1.23;;;;;;;14.18;45.57;100191.09;12206024;19;20015;-79
2023/10/16 13:59:23;;;;;;;2.90;0.98;;;;;;;14.18;45.88;100180.00;12184658;19;20066;-79
2023/10/16 14:03:25;;;;;;;1.85;0.90;;;;;;;14.25;45.93;100180.66;12209951;19;20010;-79
2023/10/16 14:07:30;;;;;;;3.33;1.15;;;;;;;14.08;46.80;100172.47;12182434;19;20010;-78
2023/10/16 14:11:33;;;;;;;3.58;1.65;;;;;;;13.91;46.35;100184.50;12205102;19;20086;-79
2023/10/16 14:15:41;;;;;;;5.05;1.52;;;;;;;13.66;47.73;100179.56;12200546;19;20002;-78
2023/10/16 14:19:51;;;;;;;4.85;1.98;;;;;;;13.62;48.20;100178.41;12200468;19;20085;-80
2023/10/16 14:23:53;;;;;;;2.25;1.10;;;;;;;13.61;49.04;100185.03;12218986;19;20078;-79
2023/10/16 14:27:55;;;;;;;3.33;1.27;;;;;;;13.56;49.94;100173.88;12208425;19;20061;-78
2023/10/16 14:31:57;;;;;;;2.53;1.40;;;;;;;13.62;50.72;100175.66;12188533;19;20007;-79
2023/10/16 14:36:01;;;;;;;5.22;1.50;;;;;;;13.70;51.64;100173.50;12205914;19;20007;-79
2023/10/16 14:40:05;;;;;;;5.35;1.30;;;;;;;13.74;52.46;100180.16;12212745;19;20027;-79
2023/10/16 14:44:11;;;;;;;5.18;1.70;;;;;;;13.67;53.16;100174.84;12192247;19;20006;-79
2023/10/16 14:48:26;;;;;;;5.63;1.40;;;;;;;13.60;53.50;100165.94;12218122;19;20026;-78
2023/10/16 14:52:28;;;;;;;6.22;2.28;;;;;;;13.50;54.70;100149.19;12200318;19;20728;-79
2023/10/16 14:56:30;;;;;;;2.30;1.30;;;;;;;13.38;54.97;100155.72;12208181;19;20035;-78
2023/10/16 15:00:37;;;;;;;2.47;1.30;;;;;;;13.32;56.12;100150.38;12213725;19;20120;-78
2023/10/16 15:04:41;;;;;;;2.47;1.30;;;;;;;13.16;57.24;100161.25;12187811;19;20565;-77
2023/10/16 15:08:49;;;;;;;4.88;1.88;;;;;;;13.08;57.19;100149.78;12211603;19;20011;-77
2023/10/16 15:12:54;;;;;;;3.75;1.80;;;;;;;12.98;58.52;100159.66;12213773;19;20545;-78
2023/10/16 15:16:56;;;;;;;4.57;1.60;;;;;;;12.80;59.86;100150.84;12188431;19;20006;-78
2023/10/16 15:21:06;;;;;;;5.60;2.47;;;;;;;12.70;60.89;100146.84;12214981;19;20002;-78
2023/10/16 15:25:13;;;;;;;3.65;1.70;;;;;;;12.59;61.10;100144.19;12246017;19;20251;-78
2023/10/16 15:29:16;;;;;;;5.18;1.98;;;;;;;12.43;62.82;100155.03;12229724;19;20032;-81
2023/10/16 15:33:20;;;;;;;;;;;;;;;12.28;63.04;100147.34;12256006;19;20006;-80
2023/10/16 15:37:23;;;;;;;4.55;1.80;;;;;;;12.22;63.28;100145.56;12258462;19;19914;-80
2023/10/16 15:41:27;;;;;;;28.35;13.27;;;;;;;12.17;64.46;100151.03;12233987;19;20045;-80
2023/10/16 15:45:34;;;;;;;14.93;6.65;;;;;;;12.01;65.53;100147.16;12257030;19;19998;-81
2023/10/16 15:49:36;;;;;;;11.75;5.05;;;;;;;11.91;66.40;100144.25;12234800;19;20007;-80
2023/10/16 15:53:43;;;;;;;3.83;2.33;;;;;;;11.78;67.90;100147.31;12254603;19;20010;-79
2023/10/16 15:57:49;;;;;;;5.22;2.60;;;;;;;11.65;69.15;100140.19;12230863;19;20007;-81
2023/10/16 16:01:51;;;;;;;5.65;2.28;;;;;;;11.53;70.21;100142.16;12211334;19;20018;-81
2023/10/16 16:05:56;;;;;;;5.05;2.25;;;;;;;11.45;70.96;100143.44;12231671;19;20006;-81
2023/10/16 16:09:59;;;;;;;4.20;2.17;;;;;;;11.36;71.17;100139.38;12228551;19;20010;-81
2023/10/16 16:14:02;;;;;;;7.33;2.57;;;;;;;11.16;72.74;100140.66;12205357;19;20014;-79
2023/10/16 16:18:05;;;;;;;4.72;2.10;;;;;;;10.97;74.83;100136.41;12225258;19;20074;-81
2023/10/16 16:22:12;;;;;;;6.38;1.95;;;;;;;10.79;75.42;100140.16;12225726;19;20003;-79
2023/10/16 16:26:16;;;;;;;8.68;3.58;;;;;;;10.59;77.57;100151.59;12201427;19;20029;-81
2023/10/16 16:30:19;;;;;;;6.72;3.58;;;;;;;10.43;79.29;100158.66;12221251;19;20015;-81
2023/10/16 16:34:22;;;;;;;8.52;4.65;;;;;;;10.24;81.23;100160.69;12226468;19;20049;-81
2023/10/16 16:38:24;;;;;;;8.60;2.78;;;;;;;10.12;81.26;100159.00;12207438;19;20413;-81
2023/10/16 16:42:25;;;;;;;10.82;3.75;;;;;;;10.00;82.67;100157.06;12216262;19;20584;-81
2023/10/16 16:46:27;;;;;;;5.23;1.70;;;;;;;9.85;83.94;100151.19;12196597;19;20099;-81
2023/10/16 16:50:30;;;;;;;3.97;1.40;;;;;;;9.73;84.80;100144.84;12219934;19;20007;-78
2023/10/16 16:54:32;;;;;;;9.70;1.80;;;;;;;9.59;86.02;100158.78;12217726;19;20006;-80
2023/10/16 16:58:37;;;;;;;3.63;1.60;;;;;;;9.49;86.79;100153.03;12193161;19;20038;-80
2023/10/16 17:02:41;;;;;;;6.40;1.50;;;;;;;9.40;87.97;100156.31;12215556;19;20011;-80
2023/10/16 17:06:43;;;;;;;4.53;2.00;;;;;;;9.28;89.26;100156.28;12214012;19;20022;-81
2023/10/16 17:10:45;;;;;;;4.45;2.20;;;;;;;9.21;90.13;100158.28;12176003;19;19996;-80
2023/10/16 17:14:48;;;;;;;8.60;3.20;;;;;;;9.13;91.35;100164.94;12199146;19;20018;-81
2023/10/16 17:18:50;;;;;;;4.35;2.28;;;;;;;9.09;92.32;100161.81;12203456;19;20010;-80
2023/10/16 17:22:52;;;;;;;4.63;1.80;;;;;;;9.05;93.14;100168.03;12181111;19;20011;-80
2023/10/16 17:26:58;;;;;;;6.35;3.70;;;;;;;9.00;93.38;100165.94;12193350;19;20671;-81
2023/10/16 17:31:01;;;;;;;;;;;;;;;8.94;96.45;100172.38;12200321;19;20093;-81
2023/10/16 17:35:03;;;;;;;6.30;2.17;;;;;;;8.88;95.56;100176.88;12172600;19;19918;-80
2023/10/16 17:39:06;;;;;;;12.63;3.67;;;;;;;8.87;96.53;100171.63;12193731;19;20011;-80
2023/10/16 17:43:09;;;;;;;72.72;33.60;;;;;;;8.84;96.75;100174.84;12189701;19;20026;-81
2023/10/16 17:47:13;;;;;;;47.05;22.83;;;;;;;8.79;96.69;100185.66;12167576;19;20011;-81
2023/10/16 17:51:16;;;;;;;10.68;7.22;;;;;;;8.71;99.99;100183.22;12190373;19;20013;-81
2023/10/16 17:55:19;;;;;;;12.52;9.52;;;;;;;8.66;100.00;100182.00;12192229;19;20007;-80
2023/10/16 17:59:23;;;;;;;6.80;3.97;;;;;;;8.63;100.00;100181.63;12169693;19;20006;-81
2023/10/16 18:03:27;;;;;;;6.75;2.65;;;;;;;8.58;99.83;100187.78;12190799;19;20022;-81
2023/10/16 18:07:30;;;;;;;10.68;5.10;;;;;;;8.52;99.15;100183.22;12173766;19;20010;-81
2023/10/16 18:11:37;;;;;;;4.40;2.72;;;;;;;8.44;99.66;100195.31;12187495;19;20014;-81
2023/10/16 18:15:39;;;;;;;4.35;2.08;;;;;;;8.41;99.94;100201.25;12196209;19;20019;-79
2023/10/16 18:19:41;;;;;;;5.18;2.00;;;;;;;8.38;100.00;100201.72;12171102;19;20007;-79
2023/10/16 18:23:43;;;;;;;3.22;1.60;;;;;;;8.31;100.00;100195.44;12191572;19;20071;-79
2023/10/16 18:27:46;;;;;;;2.65;1.35;;;;;;;8.23;100.00;100191.06;12188879;19;20087;-79
2023/10/16 18:31:48;;;;;;;5.97;1.67;;;;;;;8.16;100.00;100184.78;12180869;19;20066;-79
2023/10/16 18:35:50;;;;;;;5.47;2.05;;;;;;;8.08;100.00;100189.72;12193414;19;20018;-81
2023/10/16 18:39:52;;;;;;;5.97;1.70;;;;;;;7.97;100.00;100196.75;12192032;19;20003;-79
2023/10/16 18:43:55;;;;;;;6.00;1.85;;;;;;;7.87;100.00;100200.00;12164506;19;20010;-78
2023/10/16 18:47:58;;;;;;;3.33;1.40;;;;;;;7.79;100.00;100197.53;12184042;19;20006;-79
2023/10/16 18:52:01;;;;;;;3.47;1.50;;;;;;;7.68;100.00;100201.84;12188395;19;20030;-78
2023/10/16 18:56:04;;;;;;;6.03;1.67;;;;;;;7.62;100.00;100200.00;12164185;19;20026;-78
2023/10/16 19:00:08;;;;;;;5.28;1.90;;;;;;;7.53;100.00;100198.59;12188037;19;20351;-78
2023/10/16 19:04:10;;;;;;;6.38;2.55;;;;;;;7.43;100.00;100198.19;12182189;19;21180;-78
2023/10/16 19:08:12;;;;;;;3.60;1.50;;;;;;;7.33;100.00;100184.16;12164417;19;20007;-78
2023/10/16 19:12:16;;;;;;;11.85;5.70;;;;;;;7.23;100.00;100185.47;12187484;19;20007;-79
2023/10/16 19:16:18;;;;;;;3.83;1.98;;;;;;;7.16;100.00;100176.41;12199732;19;20003;-79
2023/10/16 19:20:22;;;;;;;5.18;1.58;;;;;;;7.06;100.00;100176.06;12171540;19;21600;-78
2023/10/16 19:24:24;;;;;;;3.78;1.80;;;;;;;7.00;100.00;100165.97;12191122;19;20010;-79
2023/10/16 19:28:27;;;;;;;2.35;1.38;;;;;;;6.96;100.00;100172.91;12176757;19;20469;-79
2023/10/16 19:32:29;;;;;;;2.50;1.35;;;;;;;6.93;100.00;100170.63;12204140;19;20014;-79
2023/10/16 19:36:34;;;;;;;3.78;1.60;;;;;;;6.92;100.00;100164.31;12196992;19;20011;-78
2023/10/16 19:40:37;;;;;;;4.55;1.85;;;;;;;6.90;100.00;100177.41;12184339;19;20091;-79
2023/10/16 19:44:39;;;;;;;10.83;2.60;;;;;;;6.90;100.00;100177.41;12195663;19;20711;-79
2023/10/16 19:48:40;;;;;;;7.13;1.83;;;;;;;6.95;100.00;100174.00;12196361;19;20432;-79
2023/10/16 19:52:43;;;;;;;93.85;32.97;;;;;;;6.99;100.00;100175.22;12181163;19;20007;-79
2023/10/16 19:56:45;;;;;;;30.55;16.23;;;;;;;7.03;100.00;100173.75;12199075;19;20027;-79
2023/10/16 20:00:47;;;;;;;11.05;4.97;;;;;;;7.11;100.00;100184.47;12198570;19;20007;-79
2023/10/16 20:04:49;;;;;;;9.65;6.53;;;;;;;7.19;100.00;100180.63;12181297;19;20037;-79
2023/10/16 20:08:51;;;;;;;8.30;5.55;;;;;;;7.27;100.00;100178.47;12199388;19;20010;-80
2023/10/16 20:12:54;;;;;;;9.40;3.63;;;;;;;7.31;100.00;100185.19;12200907;19;20062;-80
2023/10/16 20:16:57;;;;;;;10.30;3.20;;;;;;;7.41;100.00;100182.00;12174917;19;20007;-79
2023/10/16 20:21:17;;;;;;;8.15;2.55;;;;;;;7.47;100.00;100189.31;12199775;19;20026;-79
2023/10/16 20:25:20;;;;;;;4.47;1.77;;;;;;;7.52;100.00;100178.53;12198063;19;20006;-79
2023/10/16 20:29:23;;;;;;;4.78;2.70;;;;;;;7.57;100.00;100169.63;12176600;19;20009;-80
2023/10/16 20:33:25;;;;;;;6.20;2.17;;;;;;;7.63;100.00;100165.19;12200266;19;20006;-80